sensor_id;sensor_type;location;lat;lon;timestamp;temperature;humidity
12386;DHT22;6257;57.634;18.310;2022-12-08T00:01:23;1.40;99.90
12386;DHT22;6257;57.634;18.310;2022-12-08T00:06:24;1.30;99.90
12386;DHT22;6257;57.634;18.310;2022-12-08T00:09:17;1.30;99.90
12386;DHT22;6257;57.634;18.310;2022-12-08T00:11:48;1.20;99.90
12386;DHT22;6257;57.634;18.310;2022-12-08T00:14:15;1.20;99.90
12386;DHT22;6257;57.634;18.310;2022-12-08T00:16:42;1.20;99.90
12386;DHT22;6257;57.634;18.310;2022-12-08T00:19:09;1.20;99.90
12386;DHT22;6257;57.634;18.310;2022-12-08T00:21:38;1.20;99.90
12386;DHT22;6257;57.634;18.310;2022-12-08T00:24:06;1.20;99.90
12386;DHT22;6257;57.634;18.310;2022-12-08T00:26:33;1.20;99.90
12386;DHT22;6257;57.634;18.310;2022-12-08T00:29:00;1.20;99.90
12386;DHT22;6257;57.634;18.310;2022-12-08T00:31:27;1.20;99.90
12386;DHT22;6257;57.634;18.310;2022-12-08T00:33:54;1.20;99.90
12386;DHT22;6257;57.634;18.310;2022-12-08T00:36:21;1.20;99.90
12386;DHT22;6257;57.634;18.310;2022-12-08T00:38:50;1.10;99.90
12386;DHT22;6257;57.634;18.310;2022-12-08T00:41:19;1.20;99.90
12386;DHT22;6257;57.634;18.310;2022-12-08T00:44:09;1.10;99.90
12386;DHT22;6257;57.634;18.310;2022-12-08T00:46:36;1.10;99.90
12386;DHT22;6257;57.634;18.310;2022-12-08T00:49:04;1.10;99.90
12386;DHT22;6257;57.634;18.310;2022-12-08T00:51:31;1.10;99.90
12386;DHT22;6257;57.634;18.310;2022-12-08T00:54:00;1.10;99.90
12386;DHT22;6257;57.634;18.310;2022-12-08T00:56:27;1.10;99.90
12386;DHT22;6257;57.634;18.310;2022-12-08T00:58:54;1.10;99.90
12386;DHT22;6257;57.634;18.310;2022-12-08T01:01:22;1.50;99.90
12386;DHT22;6257;57.634;18.310;2022-12-08T01:03:49;1.40;99.90
12386;DHT22;6257;57.634;18.310;2022-12-08T01:06:16;1.10;99.90
12386;DHT22;6257;57.634;18.310;2022-12-08T01:08:44;1.10;99.90
12386;DHT22;6257;57.634;18.310;2022-12-08T01:11:13;1.10;99.90
12386;DHT22;6257;57.634;18.310;2022-12-08T01:13:41;1.00;99.90
12386;DHT22;6257;57.634;18.310;2022-12-08T01:16:08;1.00;99.90
12386;DHT22;6257;57.634;18.310;2022-12-08T01:18:36;1.30;99.90
12386;DHT22;6257;57.634;18.310;2022-12-08T01:21:03;1.00;99.90
12386;DHT22;6257;57.634;18.310;2022-12-08T01:23:31;1.00;99.90
12386;DHT22;6257;57.634;18.310;2022-12-08T01:26:01;1.10;99.90
12386;DHT22;6257;57.634;18.310;2022-12-08T01:28:31;1.00;99.90
12386;DHT22;6257;57.634;18.310;2022-12-08T01:30:58;1.00;99.90
12386;DHT22;6257;57.634;18.310;2022-12-08T01:33:26;1.00;99.90
12386;DHT22;6257;57.634;18.310;2022-12-08T01:35:54;1.00;99.90
12386;DHT22;6257;57.634;18.310;2022-12-08T01:38:21;1.00;99.90
12386;DHT22;6257;57.634;18.310;2022-12-08T01:40:49;0.90;99.90
12386;DHT22;6257;57.634;18.310;2022-12-08T01:43:17;0.90;99.90
12386;DHT22;6257;57.634;18.310;2022-12-08T01:45:46;0.90;99.90
12386;DHT22;6257;57.634;18.310;2022-12-08T01:48:16;0.90;99.90
12386;DHT22;6257;57.634;18.310;2022-12-08T01:50:46;0.80;99.90
12386;DHT22;6257;57.634;18.310;2022-12-08T01:53:16;0.80;99.90
12386;DHT22;6257;57.634;18.310;2022-12-08T01:55:47;0.80;99.90
12386;DHT22;6257;57.634;18.310;2022-12-08T01:58:18;0.80;99.90
12386;DHT22;6257;57.634;18.310;2022-12-08T02:00:49;0.80;99.90
12386;DHT22;6257;57.634;18.310;2022-12-08T02:03:23;0.80;99.90
12386;DHT22;6257;57.634;18.310;2022-12-08T02:05:51;0.80;99.90
12386;DHT22;6257;57.634;18.310;2022-12-08T02:08:19;0.80;99.90
12386;DHT22;6257;57.634;18.310;2022-12-08T02:10:47;0.90;99.90
12386;DHT22;6257;57.634;18.310;2022-12-08T02:13:16;0.90;99.90
12386;DHT22;6257;57.634;18.310;2022-12-08T02:15:51;0.90;99.90
12386;DHT22;6257;57.634;18.310;2022-12-08T02:18:39;0.90;99.90
12386;DHT22;6257;57.634;18.310;2022-12-08T02:21:12;0.80;99.90
12386;DHT22;6257;57.634;18.310;2022-12-08T02:23:50;0.80;99.90
12386;DHT22;6257;57.634;18.310;2022-12-08T02:29:36;0.70;99.90
12386;DHT22;6257;57.634;18.310;2022-12-08T02:35:10;0.70;99.90
12386;DHT22;6257;57.634;18.310;2022-12-08T02:37:42;0.70;99.90
12386;DHT22;6257;57.634;18.310;2022-12-08T02:40:16;0.70;99.90
12386;DHT22;6257;57.634;18.310;2022-12-08T02:42:49;0.70;99.90
12386;DHT22;6257;57.634;18.310;2022-12-08T02:45:23;0.70;99.90
12386;DHT22;6257;57.634;18.310;2022-12-08T02:47:51;0.60;99.90
12386;DHT22;6257;57.634;18.310;2022-12-08T02:50:21;0.60;99.90
12386;DHT22;6257;57.634;18.310;2022-12-08T02:52:48;0.60;99.90
12386;DHT22;6257;57.634;18.310;2022-12-08T02:55:21;0.60;99.90
12386;DHT22;6257;57.634;18.310;2022-12-08T02:58:11;0.60;99.90
12386;DHT22;6257;57.634;18.310;2022-12-08T03:00:51;0.50;99.90
12386;DHT22;6257;57.634;18.310;2022-12-08T03:03:26;0.50;99.90
12386;DHT22;6257;57.634;18.310;2022-12-08T03:06:04;0.50;99.90
12386;DHT22;6257;57.634;18.310;2022-12-08T03:08:41;0.40;99.90
12386;DHT22;6257;57.634;18.310;2022-12-08T03:11:14;0.50;99.90
12386;DHT22;6257;57.634;18.310;2022-12-08T03:13:46;0.40;99.90
12386;DHT22;6257;57.634;18.310;2022-12-08T03:16:17;0.50;99.90
12386;DHT22;6257;57.634;18.310;2022-12-08T03:18:48;0.50;99.90
12386;DHT22;6257;57.634;18.310;2022-12-08T03:21:19;0.50;99.90
12386;DHT22;6257;57.634;18.310;2022-12-08T03:23:50;0.40;99.90
12386;DHT22;6257;57.634;18.310;2022-12-08T03:26:24;0.40;99.90
12386;DHT22;6257;57.634;18.310;2022-12-08T03:28:53;0.10;99.90
12386;DHT22;6257;57.634;18.310;2022-12-08T03:31:21;0.60;99.90
12386;DHT22;6257;57.634;18.310;2022-12-08T03:33:53;0.30;99.90
12386;DHT22;6257;57.634;18.310;2022-12-08T03:36:24;0.40;99.90
12386;DHT22;6257;57.634;18.310;2022-12-08T03:38:52;0.30;99.90
12386;DHT22;6257;57.634;18.310;2022-12-08T03:41:21;0.20;99.90
12386;DHT22;6257;57.634;18.310;2022-12-08T03:43:50;0.40;99.90
12386;DHT22;6257;57.634;18.310;2022-12-08T03:46:19;0.40;99.90
12386;DHT22;6257;57.634;18.310;2022-12-08T03:48:46;0.40;99.90
12386;DHT22;6257;57.634;18.310;2022-12-08T03:51:14;0.50;99.90
12386;DHT22;6257;57.634;18.310;2022-12-08T03:53:43;0.50;99.90
12386;DHT22;6257;57.634;18.310;2022-12-08T03:56:16;0.30;99.90
12386;DHT22;6257;57.634;18.310;2022-12-08T03:58:45;0.40;99.90
12386;DHT22;6257;57.634;18.310;2022-12-08T04:01:12;0.20;99.90
12386;DHT22;6257;57.634;18.310;2022-12-08T04:03:39;0.30;99.90
12386;DHT22;6257;57.634;18.310;2022-12-08T04:06:06;0.20;99.90
12386;DHT22;6257;57.634;18.310;2022-12-08T04:08:33;0.10;99.90
12386;DHT22;6257;57.634;18.310;2022-12-08T04:11:02;0.40;99.90
12386;DHT22;6257;57.634;18.310;2022-12-08T04:13:31;0.50;99.90
12386;DHT22;6257;57.634;18.310;2022-12-08T04:15:58;0.00;99.90
12386;DHT22;6257;57.634;18.310;2022-12-08T04:18:25;0.10;99.90
12386;DHT22;6257;57.634;18.310;2022-12-08T04:20:52;0.20;99.90
12386;DHT22;6257;57.634;18.310;2022-12-08T04:23:19;0.10;99.90
12386;DHT22;6257;57.634;18.310;2022-12-08T04:25:46;0.10;99.90
12386;DHT22;6257;57.634;18.310;2022-12-08T04:28:15;0.00;99.90
12386;DHT22;6257;57.634;18.310;2022-12-08T04:30:42;0.00;99.90
12386;DHT22;6257;57.634;18.310;2022-12-08T04:33:09;0.10;99.90
12386;DHT22;6257;57.634;18.310;2022-12-08T04:35:36;0.10;99.90
12386;DHT22;6257;57.634;18.310;2022-12-08T04:38:04;0.00;99.90
12386;DHT22;6257;57.634;18.310;2022-12-08T04:40:31;-0.10;99.90
12386;DHT22;6257;57.634;18.310;2022-12-08T04:42:58;-0.10;99.90
12386;DHT22;6257;57.634;18.310;2022-12-08T04:45:26;-0.10;99.90
12386;DHT22;6257;57.634;18.310;2022-12-08T04:47:53;1.00;99.90
12386;DHT22;6257;57.634;18.310;2022-12-08T04:50:20;0.40;99.90
12386;DHT22;6257;57.634;18.310;2022-12-08T04:52:47;0.00;99.90
12386;DHT22;6257;57.634;18.310;2022-12-08T04:55:15;-0.10;99.90
12386;DHT22;6257;57.634;18.310;2022-12-08T04:57:42;0.00;99.90
12386;DHT22;6257;57.634;18.310;2022-12-08T05:00:09;0.10;99.90
12386;DHT22;6257;57.634;18.310;2022-12-08T05:02:39;0.00;99.90
12386;DHT22;6257;57.634;18.310;2022-12-08T05:05:07;0.00;99.90
12386;DHT22;6257;57.634;18.310;2022-12-08T05:07:34;-0.10;99.90
12386;DHT22;6257;57.634;18.310;2022-12-08T05:10:02;0.10;99.90
12386;DHT22;6257;57.634;18.310;2022-12-08T05:12:29;-0.10;99.90
12386;DHT22;6257;57.634;18.310;2022-12-08T05:14:56;-0.10;99.90
12386;DHT22;6257;57.634;18.310;2022-12-08T05:17:23;-0.20;99.90
12386;DHT22;6257;57.634;18.310;2022-12-08T05:19:51;0.10;99.90
12386;DHT22;6257;57.634;18.310;2022-12-08T05:22:18;-0.20;99.90
12386;DHT22;6257;57.634;18.310;2022-12-08T05:24:45;0.10;99.90
12386;DHT22;6257;57.634;18.310;2022-12-08T05:27:13;-0.20;99.90
12386;DHT22;6257;57.634;18.310;2022-12-08T05:29:40;0.20;99.90
12386;DHT22;6257;57.634;18.310;2022-12-08T05:32:07;0.00;99.90
12386;DHT22;6257;57.634;18.310;2022-12-08T05:34:34;-0.10;99.90
12386;DHT22;6257;57.634;18.310;2022-12-08T05:39:30;-0.40;99.90
12386;DHT22;6257;57.634;18.310;2022-12-08T05:41:57;-0.20;99.90
12386;DHT22;6257;57.634;18.310;2022-12-08T05:44:24;-0.30;99.90
12386;DHT22;6257;57.634;18.310;2022-12-08T05:46:51;-0.40;99.90
12386;DHT22;6257;57.634;18.310;2022-12-08T05:49:18;-0.40;99.90
12386;DHT22;6257;57.634;18.310;2022-12-08T05:51:45;0.00;99.90
12386;DHT22;6257;57.634;18.310;2022-12-08T05:54:14;-0.40;99.90
12386;DHT22;6257;57.634;18.310;2022-12-08T05:56:41;-0.40;99.90
12386;DHT22;6257;57.634;18.310;2022-12-08T05:59:08;-0.30;99.90
12386;DHT22;6257;57.634;18.310;2022-12-08T06:01:35;-0.40;99.90
12386;DHT22;6257;57.634;18.310;2022-12-08T06:04:03;-0.50;99.90
12386;DHT22;6257;57.634;18.310;2022-12-08T06:06:30;-0.50;99.90
12386;DHT22;6257;57.634;18.310;2022-12-08T06:09:01;-0.50;99.90
12386;DHT22;6257;57.634;18.310;2022-12-08T06:11:30;-0.40;99.90
12386;DHT22;6257;57.634;18.310;2022-12-08T06:13:58;-0.50;99.90
12386;DHT22;6257;57.634;18.310;2022-12-08T06:16:26;-0.30;99.90
12386;DHT22;6257;57.634;18.310;2022-12-08T06:18:53;-0.50;99.90
12386;DHT22;6257;57.634;18.310;2022-12-08T06:21:20;-0.40;99.90
12386;DHT22;6257;57.634;18.310;2022-12-08T06:23:48;0.00;99.90
12386;DHT22;6257;57.634;18.310;2022-12-08T06:26:15;-0.20;99.90
12386;DHT22;6257;57.634;18.310;2022-12-08T06:28:44;-0.20;99.90
12386;DHT22;6257;57.634;18.310;2022-12-08T06:31:14;-0.30;99.90
12386;DHT22;6257;57.634;18.310;2022-12-08T06:33:42;-0.50;99.90
12386;DHT22;6257;57.634;18.310;2022-12-08T06:36:11;-0.60;99.90
12386;DHT22;6257;57.634;18.310;2022-12-08T06:38:39;-0.10;99.90
12386;DHT22;6257;57.634;18.310;2022-12-08T06:41:06;-0.20;99.90
12386;DHT22;6257;57.634;18.310;2022-12-08T06:43:33;-0.30;99.90
12386;DHT22;6257;57.634;18.310;2022-12-08T06:46:05;-0.20;99.90
12386;DHT22;6257;57.634;18.310;2022-12-08T06:48:32;-0.40;99.90
12386;DHT22;6257;57.634;18.310;2022-12-08T06:51:05;-0.40;99.90
12386;DHT22;6257;57.634;18.310;2022-12-08T06:53:33;-0.50;99.90
12386;DHT22;6257;57.634;18.310;2022-12-08T06:56:00;-0.50;99.90
12386;DHT22;6257;57.634;18.310;2022-12-08T06:58:27;-0.30;99.90
12386;DHT22;6257;57.634;18.310;2022-12-08T07:00:54;-0.30;99.90
12386;DHT22;6257;57.634;18.310;2022-12-08T07:03:23;-0.40;99.90
12386;DHT22;6257;57.634;18.310;2022-12-08T07:05:54;-0.20;99.90
12386;DHT22;6257;57.634;18.310;2022-12-08T07:08:22;-0.40;99.90
12386;DHT22;6257;57.634;18.310;2022-12-08T07:10:49;-0.50;99.90
12386;DHT22;6257;57.634;18.310;2022-12-08T07:13:16;-0.20;99.90
12386;DHT22;6257;57.634;18.310;2022-12-08T07:15:43;0.20;99.90
12386;DHT22;6257;57.634;18.310;2022-12-08T07:18:10;0.40;99.90
12386;DHT22;6257;57.634;18.310;2022-12-08T07:20:38;-0.30;99.90
12386;DHT22;6257;57.634;18.310;2022-12-08T07:23:05;-0.50;99.90
12386;DHT22;6257;57.634;18.310;2022-12-08T07:25:32;-0.20;99.90
12386;DHT22;6257;57.634;18.310;2022-12-08T07:27:59;-0.40;99.90
12386;DHT22;6257;57.634;18.310;2022-12-08T07:30:26;-0.60;99.90
12386;DHT22;6257;57.634;18.310;2022-12-08T07:32:53;-0.60;99.90
12386;DHT22;6257;57.634;18.310;2022-12-08T07:35:20;-0.40;99.90
12386;DHT22;6257;57.634;18.310;2022-12-08T07:37:48;-0.70;99.90
12386;DHT22;6257;57.634;18.310;2022-12-08T07:40:15;-0.70;99.90
12386;DHT22;6257;57.634;18.310;2022-12-08T07:42:42;0.00;99.90
12386;DHT22;6257;57.634;18.310;2022-12-08T07:45:10;-0.40;99.90
12386;DHT22;6257;57.634;18.310;2022-12-08T07:47:37;-0.60;99.90
12386;DHT22;6257;57.634;18.310;2022-12-08T07:50:05;-0.40;99.90
12386;DHT22;6257;57.634;18.310;2022-12-08T07:52:33;-0.60;99.90
12386;DHT22;6257;57.634;18.310;2022-12-08T07:55:01;-0.20;99.90
12386;DHT22;6257;57.634;18.310;2022-12-08T07:57:29;-0.60;99.90
12386;DHT22;6257;57.634;18.310;2022-12-08T07:59:56;0.10;99.90
12386;DHT22;6257;57.634;18.310;2022-12-08T08:02:22;-0.20;99.90
12386;DHT22;6257;57.634;18.310;2022-12-08T08:04:50;-0.60;99.90
12386;DHT22;6257;57.634;18.310;2022-12-08T08:07:17;-0.30;99.90
12386;DHT22;6257;57.634;18.310;2022-12-08T08:09:44;-0.60;99.90
12386;DHT22;6257;57.634;18.310;2022-12-08T08:12:12;-0.20;99.90
12386;DHT22;6257;57.634;18.310;2022-12-08T08:14:39;-0.40;99.90
12386;DHT22;6257;57.634;18.310;2022-12-08T08:17:06;0.10;99.90
12386;DHT22;6257;57.634;18.310;2022-12-08T08:19:33;-0.50;99.90
12386;DHT22;6257;57.634;18.310;2022-12-08T08:22:00;-0.50;99.90
12386;DHT22;6257;57.634;18.310;2022-12-08T08:24:27;-0.40;99.90
12386;DHT22;6257;57.634;18.310;2022-12-08T08:26:54;-0.40;99.90
12386;DHT22;6257;57.634;18.310;2022-12-08T08:29:23;-0.30;99.90
12386;DHT22;6257;57.634;18.310;2022-12-08T08:31:50;-0.60;99.90
12386;DHT22;6257;57.634;18.310;2022-12-08T08:34:17;-0.40;99.90
12386;DHT22;6257;57.634;18.310;2022-12-08T08:36:44;-0.50;99.90
12386;DHT22;6257;57.634;18.310;2022-12-08T08:39:11;-0.50;99.90
12386;DHT22;6257;57.634;18.310;2022-12-08T08:41:38;-0.30;99.90
12386;DHT22;6257;57.634;18.310;2022-12-08T08:44:06;-0.50;99.90
12386;DHT22;6257;57.634;18.310;2022-12-08T08:46:34;-0.50;99.90
12386;DHT22;6257;57.634;18.310;2022-12-08T08:49:01;-0.50;99.90
12386;DHT22;6257;57.634;18.310;2022-12-08T08:51:28;-0.40;99.90
12386;DHT22;6257;57.634;18.310;2022-12-08T08:53:56;-0.40;99.90
12386;DHT22;6257;57.634;18.310;2022-12-08T08:56:23;-0.40;99.90
12386;DHT22;6257;57.634;18.310;2022-12-08T08:58:52;-0.10;99.90
12386;DHT22;6257;57.634;18.310;2022-12-08T09:01:21;-0.40;99.90
12386;DHT22;6257;57.634;18.310;2022-12-08T09:03:50;-0.30;99.90
12386;DHT22;6257;57.634;18.310;2022-12-08T09:06:18;-0.10;99.90
12386;DHT22;6257;57.634;18.310;2022-12-08T09:08:45;-0.30;99.90
12386;DHT22;6257;57.634;18.310;2022-12-08T09:11:13;-0.40;99.90
12386;DHT22;6257;57.634;18.310;2022-12-08T09:13:40;-0.20;99.90
12386;DHT22;6257;57.634;18.310;2022-12-08T09:16:08;-0.60;99.90
12386;DHT22;6257;57.634;18.310;2022-12-08T09:18:36;-0.10;99.90
12386;DHT22;6257;57.634;18.310;2022-12-08T09:21:06;-0.50;99.90
12386;DHT22;6257;57.634;18.310;2022-12-08T09:23:33;-0.90;99.90
12386;DHT22;6257;57.634;18.310;2022-12-08T09:26:01;-0.30;99.90
12386;DHT22;6257;57.634;18.310;2022-12-08T09:28:29;-1.00;99.90
12386;DHT22;6257;57.634;18.310;2022-12-08T09:30:56;-0.90;99.90
12386;DHT22;6257;57.634;18.310;2022-12-08T09:33:24;-0.70;99.90
12386;DHT22;6257;57.634;18.310;2022-12-08T09:35:51;-1.00;99.90
12386;DHT22;6257;57.634;18.310;2022-12-08T09:38:19;0.00;99.90
12386;DHT22;6257;57.634;18.310;2022-12-08T09:40:49;0.30;99.90
12386;DHT22;6257;57.634;18.310;2022-12-08T09:43:28;-0.40;99.90
12386;DHT22;6257;57.634;18.310;2022-12-08T09:46:03;-0.70;99.90
12386;DHT22;6257;57.634;18.310;2022-12-08T09:48:34;-0.60;99.90
12386;DHT22;6257;57.634;18.310;2022-12-08T09:51:04;-0.50;99.90
12386;DHT22;6257;57.634;18.310;2022-12-08T09:53:35;-0.40;99.90
12386;DHT22;6257;57.634;18.310;2022-12-08T09:56:09;0.20;99.90
12386;DHT22;6257;57.634;18.310;2022-12-08T09:58:44;-0.30;99.90
12386;DHT22;6257;57.634;18.310;2022-12-08T10:01:15;-0.10;99.90
12386;DHT22;6257;57.634;18.310;2022-12-08T10:03:42;-0.40;99.90
12386;DHT22;6257;57.634;18.310;2022-12-08T10:06:15;-0.40;99.90
12386;DHT22;6257;57.634;18.310;2022-12-08T10:08:58;-0.30;99.90
12386;DHT22;6257;57.634;18.310;2022-12-08T10:11:34;-0.30;99.90
12386;DHT22;6257;57.634;18.310;2022-12-08T10:14:14;-0.10;99.90
12386;DHT22;6257;57.634;18.310;2022-12-08T10:16:48;-0.20;99.90
12386;DHT22;6257;57.634;18.310;2022-12-08T10:19:18;-0.20;99.90
12386;DHT22;6257;57.634;18.310;2022-12-08T10:21:46;-0.40;99.90
12386;DHT22;6257;57.634;18.310;2022-12-08T10:24:22;-0.30;99.90
12386;DHT22;6257;57.634;18.310;2022-12-08T10:26:51;-0.20;99.90
12386;DHT22;6257;57.634;18.310;2022-12-08T10:29:19;-0.20;99.90
12386;DHT22;6257;57.634;18.310;2022-12-08T10:31:46;-0.30;99.90
12386;DHT22;6257;57.634;18.310;2022-12-08T10:34:16;-0.10;99.90
12386;DHT22;6257;57.634;18.310;2022-12-08T10:36:45;-0.20;99.90
12386;DHT22;6257;57.634;18.310;2022-12-08T10:39:35;0.10;99.90
12386;DHT22;6257;57.634;18.310;2022-12-08T10:42:10;-0.30;99.90
12386;DHT22;6257;57.634;18.310;2022-12-08T10:44:54;-0.30;99.90
12386;DHT22;6257;57.634;18.310;2022-12-08T10:47:25;-0.20;99.90
12386;DHT22;6257;57.634;18.310;2022-12-08T10:50:15;-0.10;99.90
12386;DHT22;6257;57.634;18.310;2022-12-08T10:52:44;0.00;99.90
12386;DHT22;6257;57.634;18.310;2022-12-08T10:55:18;0.00;99.90
12386;DHT22;6257;57.634;18.310;2022-12-08T10:57:46;0.00;99.90
12386;DHT22;6257;57.634;18.310;2022-12-08T11:00:15;-0.10;99.90
12386;DHT22;6257;57.634;18.310;2022-12-08T11:02:52;-0.10;99.90
12386;DHT22;6257;57.634;18.310;2022-12-08T11:05:20;-0.10;99.90
12386;DHT22;6257;57.634;18.310;2022-12-08T11:07:50;-0.10;99.90
12386;DHT22;6257;57.634;18.310;2022-12-08T11:10:27;0.10;99.90
12386;DHT22;6257;57.634;18.310;2022-12-08T11:12:59;0.00;99.90
12386;DHT22;6257;57.634;18.310;2022-12-08T11:15:33;0.10;99.90
12386;DHT22;6257;57.634;18.310;2022-12-08T11:18:07;0.00;99.90
12386;DHT22;6257;57.634;18.310;2022-12-08T11:20:38;-0.10;99.90
12386;DHT22;6257;57.634;18.310;2022-12-08T11:23:18;-0.10;99.90
12386;DHT22;6257;57.634;18.310;2022-12-08T11:25:47;-0.20;99.90
12386;DHT22;6257;57.634;18.310;2022-12-08T11:28:17;-0.20;99.90
12386;DHT22;6257;57.634;18.310;2022-12-08T11:30:53;-0.30;99.90
12386;DHT22;6257;57.634;18.310;2022-12-08T11:33:24;-0.30;99.90
12386;DHT22;6257;57.634;18.310;2022-12-08T11:35:55;-0.30;99.90
12386;DHT22;6257;57.634;18.310;2022-12-08T11:38:24;-0.30;99.90
12386;DHT22;6257;57.634;18.310;2022-12-08T11:40:56;-0.20;99.90
12386;DHT22;6257;57.634;18.310;2022-12-08T11:43:29;-0.20;99.90
12386;DHT22;6257;57.634;18.310;2022-12-08T11:45:59;-0.20;99.90
12386;DHT22;6257;57.634;18.310;2022-12-08T11:48:32;-0.20;99.90
12386;DHT22;6257;57.634;18.310;2022-12-08T11:51:02;-0.30;99.90
12386;DHT22;6257;57.634;18.310;2022-12-08T11:53:36;-0.30;99.90
12386;DHT22;6257;57.634;18.310;2022-12-08T11:56:12;-0.10;99.90
12386;DHT22;6257;57.634;18.310;2022-12-08T11:58:44;-0.10;99.90
12386;DHT22;6257;57.634;18.310;2022-12-08T12:01:17;-0.10;99.90
12386;DHT22;6257;57.634;18.310;2022-12-08T12:03:49;-0.20;99.90
12386;DHT22;6257;57.634;18.310;2022-12-08T12:06:45;-0.30;99.90
12386;DHT22;6257;57.634;18.310;2022-12-08T12:09:18;-0.20;99.90
12386;DHT22;6257;57.634;18.310;2022-12-08T12:12:00;-0.20;99.90
12386;DHT22;6257;57.634;18.310;2022-12-08T12:17:43;-0.40;99.90
12386;DHT22;6257;57.634;18.310;2022-12-08T12:20:15;-0.30;99.90
12386;DHT22;6257;57.634;18.310;2022-12-08T12:22:48;-0.30;99.90
12386;DHT22;6257;57.634;18.310;2022-12-08T12:25:19;0.00;99.90
12386;DHT22;6257;57.634;18.310;2022-12-08T12:27:50;-0.10;99.90
12386;DHT22;6257;57.634;18.310;2022-12-08T12:30:20;-0.10;99.90
12386;DHT22;6257;57.634;18.310;2022-12-08T12:32:51;-0.10;99.90
12386;DHT22;6257;57.634;18.310;2022-12-08T12:35:25;0.00;99.90
12386;DHT22;6257;57.634;18.310;2022-12-08T12:37:57;0.10;99.90
12386;DHT22;6257;57.634;18.310;2022-12-08T12:40:27;0.00;99.90
12386;DHT22;6257;57.634;18.310;2022-12-08T12:43:27;0.00;99.90
12386;DHT22;6257;57.634;18.310;2022-12-08T12:52:00;-0.20;99.90
12386;DHT22;6257;57.634;18.310;2022-12-08T12:54:28;-0.20;99.90
12386;DHT22;6257;57.634;18.310;2022-12-08T12:56:55;-0.20;99.90
12386;DHT22;6257;57.634;18.310;2022-12-08T12:59:43;0.00;99.90
12386;DHT22;6257;57.634;18.310;2022-12-08T13:02:22;0.10;99.90
12386;DHT22;6257;57.634;18.310;2022-12-08T13:04:57;0.10;99.90
12386;DHT22;6257;57.634;18.310;2022-12-08T13:07:27;0.20;99.90
12386;DHT22;6257;57.634;18.310;2022-12-08T13:09:58;0.20;99.90
12386;DHT22;6257;57.634;18.310;2022-12-08T13:12:26;0.00;99.90
12386;DHT22;6257;57.634;18.310;2022-12-08T13:15:00;0.00;99.90
12386;DHT22;6257;57.634;18.310;2022-12-08T13:17:30;0.00;99.90
12386;DHT22;6257;57.634;18.310;2022-12-08T13:19:59;0.20;99.90
12386;DHT22;6257;57.634;18.310;2022-12-08T13:22:59;0.00;99.90
12386;DHT22;6257;57.634;18.310;2022-12-08T13:26:10;-0.10;99.90
12386;DHT22;6257;57.634;18.310;2022-12-08T13:31:40;-0.20;99.90
12386;DHT22;6257;57.634;18.310;2022-12-08T13:34:13;-0.30;99.90
12386;DHT22;6257;57.634;18.310;2022-12-08T13:36:49;-0.40;99.90
12386;DHT22;6257;57.634;18.310;2022-12-08T13:39:20;-0.40;99.90
12386;DHT22;6257;57.634;18.310;2022-12-08T13:41:56;0.00;99.90
12386;DHT22;6257;57.634;18.310;2022-12-08T13:44:29;-0.30;99.90
12386;DHT22;6257;57.634;18.310;2022-12-08T13:46:59;-0.50;99.90
12386;DHT22;6257;57.634;18.310;2022-12-08T13:49:33;-0.40;99.90
12386;DHT22;6257;57.634;18.310;2022-12-08T13:52:01;-0.30;99.90
12386;DHT22;6257;57.634;18.310;2022-12-08T13:54:31;-0.30;99.90
12386;DHT22;6257;57.634;18.310;2022-12-08T13:56:59;-0.30;99.90
12386;DHT22;6257;57.634;18.310;2022-12-08T13:59:29;0.00;99.90
12386;DHT22;6257;57.634;18.310;2022-12-08T14:02:02;-0.40;99.90
12386;DHT22;6257;57.634;18.310;2022-12-08T14:04:30;-0.40;99.90
12386;DHT22;6257;57.634;18.310;2022-12-08T14:07:00;-0.40;99.90
12386;DHT22;6257;57.634;18.310;2022-12-08T14:09:33;-0.50;99.90
12386;DHT22;6257;57.634;18.310;2022-12-08T14:12:05;-0.30;99.90
12386;DHT22;6257;57.634;18.310;2022-12-08T14:14:35;-0.60;99.90
12386;DHT22;6257;57.634;18.310;2022-12-08T14:17:10;-0.50;99.90
12386;DHT22;6257;57.634;18.310;2022-12-08T14:19:38;-0.60;99.90
12386;DHT22;6257;57.634;18.310;2022-12-08T14:22:09;-0.70;99.90
12386;DHT22;6257;57.634;18.310;2022-12-08T14:24:38;-0.60;99.90
12386;DHT22;6257;57.634;18.310;2022-12-08T14:27:06;0.10;99.90
12386;DHT22;6257;57.634;18.310;2022-12-08T14:29:39;-0.50;99.90
12386;DHT22;6257;57.634;18.310;2022-12-08T14:32:20;-0.30;99.90
12386;DHT22;6257;57.634;18.310;2022-12-08T14:34:51;-0.60;99.90
12386;DHT22;6257;57.634;18.310;2022-12-08T14:37:20;-0.30;99.90
12386;DHT22;6257;57.634;18.310;2022-12-08T14:39:48;-0.90;99.90
12386;DHT22;6257;57.634;18.310;2022-12-08T14:42:21;-0.40;99.90
12386;DHT22;6257;57.634;18.310;2022-12-08T14:44:58;-0.40;99.90
12386;DHT22;6257;57.634;18.310;2022-12-08T14:47:31;-0.90;99.90
12386;DHT22;6257;57.634;18.310;2022-12-08T14:49:59;-1.00;99.90
12386;DHT22;6257;57.634;18.310;2022-12-08T14:52:26;-0.80;99.90
12386;DHT22;6257;57.634;18.310;2022-12-08T14:54:54;-0.40;99.90
12386;DHT22;6257;57.634;18.310;2022-12-08T14:57:21;-0.50;99.90
12386;DHT22;6257;57.634;18.310;2022-12-08T14:59:48;-0.50;99.90
12386;DHT22;6257;57.634;18.310;2022-12-08T15:02:25;-0.90;99.90
12386;DHT22;6257;57.634;18.310;2022-12-08T15:04:57;-0.70;99.90
12386;DHT22;6257;57.634;18.310;2022-12-08T15:07:27;-0.40;99.90
12386;DHT22;6257;57.634;18.310;2022-12-08T15:13:05;-0.90;99.90
12386;DHT22;6257;57.634;18.310;2022-12-08T15:15:46;-0.60;99.90
12386;DHT22;6257;57.634;18.310;2022-12-08T15:18:16;-1.00;99.90
12386;DHT22;6257;57.634;18.310;2022-12-08T15:20:47;-1.10;99.90
12386;DHT22;6257;57.634;18.310;2022-12-08T15:23:22;-1.20;99.90
12386;DHT22;6257;57.634;18.310;2022-12-08T15:25:50;-0.30;99.90
12386;DHT22;6257;57.634;18.310;2022-12-08T15:28:20;-1.50;99.90
12386;DHT22;6257;57.634;18.310;2022-12-08T15:30:48;-0.80;99.90
12386;DHT22;6257;57.634;18.310;2022-12-08T15:33:15;-1.50;99.90
12386;DHT22;6257;57.634;18.310;2022-12-08T15:35:42;-0.70;99.90
12386;DHT22;6257;57.634;18.310;2022-12-08T15:38:19;-1.20;99.90
12386;DHT22;6257;57.634;18.310;2022-12-08T15:40:48;-1.60;99.90
12386;DHT22;6257;57.634;18.310;2022-12-08T15:43:15;-1.60;99.90
12386;DHT22;6257;57.634;18.310;2022-12-08T15:45:42;-0.10;99.90
12386;DHT22;6257;57.634;18.310;2022-12-08T15:48:15;-1.80;99.90
12386;DHT22;6257;57.634;18.310;2022-12-08T15:50:44;-1.80;99.90
12386;DHT22;6257;57.634;18.310;2022-12-08T15:53:11;-1.90;99.90
12386;DHT22;6257;57.634;18.310;2022-12-08T15:55:40;-1.90;99.90
12386;DHT22;6257;57.634;18.310;2022-12-08T15:58:12;-2.00;99.90
12386;DHT22;6257;57.634;18.310;2022-12-08T16:00:41;-2.00;99.90
12386;DHT22;6257;57.634;18.310;2022-12-08T16:03:18;-2.10;99.90
12386;DHT22;6257;57.634;18.310;2022-12-08T16:05:45;-2.10;99.90
12386;DHT22;6257;57.634;18.310;2022-12-08T16:08:13;-1.50;99.90
12386;DHT22;6257;57.634;18.310;2022-12-08T16:10:42;-2.20;99.90
12386;DHT22;6257;57.634;18.310;2022-12-08T16:13:13;-2.30;99.90
12386;DHT22;6257;57.634;18.310;2022-12-08T16:15:59;-2.30;99.90
12386;DHT22;6257;57.634;18.310;2022-12-08T16:18:29;-2.40;99.90
12386;DHT22;6257;57.634;18.310;2022-12-08T16:20:57;-2.50;99.90
12386;DHT22;6257;57.634;18.310;2022-12-08T16:23:24;-2.50;99.90